Time;durP1;ratioP1;P1;durP2;ratioP2;P2;SDS_P1;SDS_P2;PMS_P1;PMS_P2;Temp;Humidity;BMP_temperature;BMP_pressure;BME280_temperature;BME280_humidity;BME280_pressure;Samples;Min_cycle;Max_cycle;Signal;HPM_P1;HPM_P2
2023/08/01 00:00:30;;;;;;;9.47;3.87;;;19.30;75.10;;;;;;5058490;28;20553;-73
2023/08/01 00:02:56;;;;;;;6.20;3.93;;;19.30;75.20;;;;;;5061099;28;20525;-72
2023/08/01 00:05:22;;;;;;;7.80;4.10;;;19.20;75.10;;;;;;5053046;28;20205;-72
2023/08/01 00:07:47;;;;;;;12.87;4.03;;;19.20;75.20;;;;;;5063418;28;20464;-72
2023/08/01 00:10:13;;;;;;;7.07;4.37;;;19.20;75.70;;;;;;5054867;28;20904;-71
2023/08/01 00:12:38;;;;;;;8.90;4.67;;;19.10;76.20;;;;;;5061308;28;20204;-72
2023/08/01 00:15:05;;;;;;;7.60;3.77;;;19.10;76.50;;;;;;5062619;28;20184;-72
2023/08/01 00:17:30;;;;;;;8.63;4.10;;;19.00;77.10;;;;;;5066304;28;20572;-74
2023/08/01 00:19:56;;;;;;;10.07;4.57;;;19.00;77.30;;;;;;5049744;28;20486;-73
2023/08/01 00:22:21;;;;;;;4.87;3.27;;;18.90;77.40;;;;;;5059777;28;20213;-73
2023/08/01 00:24:47;;;;;;;6.43;3.63;;;18.90;77.40;;;;;;5059986;28;20201;-72
2023/08/01 00:27:13;;;;;;;8.00;4.30;;;18.90;77.30;;;;;;5064249;28;20183;-73
2023/08/01 00:29:39;;;;;;;8.67;4.10;;;18.90;77.40;;;;;;5069812;28;20571;-72
2023/08/01 00:32:05;;;;;;;6.63;3.83;;;19.00;77.40;;;;;;5059548;28;20974;-72
2023/08/01 00:34:31;;;;;;;7.93;3.67;;;19.00;77.30;;;;;;5062626;28;20648;-71
2023/08/01 00:36:57;;;;;;;6.23;3.63;;;19.00;77.60;;;;;;5059907;28;20438;-72
2023/08/01 00:39:22;;;;;;;7.07;3.63;;;19.10;76.70;;;;;;5055244;28;20586;-71
2023/08/01 00:41:48;;;;;;;7.57;3.90;;;19.20;76.50;;;;;;5046110;28;20453;-71
2023/08/01 00:44:13;;;;;;;8.57;3.97;;;19.10;76.70;;;;;;5054932;28;20243;-71
2023/08/01 00:46:39;;;;;;;10.50;4.37;;;19.10;76.80;;;;;;5051486;28;20194;-73
2023/08/01 00:49:05;;;;;;;7.60;3.70;;;19.20;77.00;;;;;;5051232;28;20205;-72
2023/08/01 00:51:32;;;;;;;8.60;3.90;;;19.20;76.80;;;;;;5047833;28;20467;-73
2023/08/01 00:53:58;;;;;;;9.47;3.47;;;19.30;76.10;;;;;;5064263;28;20219;-72
2023/08/01 00:56:24;;;;;;;9.83;5.03;;;19.30;75.70;;;;;;5064442;28;20441;-72
2023/08/01 00:58:50;;;;;;;7.03;4.10;;;19.30;76.10;;;;;;5060134;28;20849;-74
2023/08/01 01:01:15;;;;;;;8.43;4.23;;;19.30;76.40;;;;;;5049666;28;20207;-72
2023/08/01 01:03:41;;;;;;;8.47;4.63;;;19.40;76.20;;;;;;5057627;28;20223;-72
2023/08/01 01:06:16;;;;;;;5.97;3.87;;;19.40;76.50;;;;;;5049825;28;20196;-72
2023/08/01 01:08:42;;;;;;;5.43;3.40;;;19.40;76.20;;;;;;5052766;28;20191;-72
2023/08/01 01:11:08;;;;;;;10.43;5.03;;;19.40;75.70;;;;;;5051881;28;20523;-72
2023/08/01 01:13:33;;;;;;;4.90;3.40;;;19.40;75.40;;;;;;5058348;28;20184;-72
2023/08/01 01:15:59;;;;;;;6.20;3.50;;;19.40;75.20;;;;;;5053483;28;20273;-73
2023/08/01 01:18:25;;;;;;;7.67;4.00;;;19.30;75.40;;;;;;5059321;28;20244;-73
2023/08/01 01:20:50;;;;;;;6.93;3.87;;;19.30;75.10;;;;;;5049993;28;20223;-71
2023/08/01 01:23:17;;;;;;;5.50;3.37;;;19.30;75.50;;;;;;5058278;28;20237;-73
2023/08/01 01:25:43;;;;;;;6.83;3.80;;;19.40;74.80;;;;;;5058722;28;20200;-72
2023/08/01 01:28:11;;;;;;;8.03;3.73;;;19.40;74.50;;;;;;5062241;28;20469;-72
2023/08/01 01:30:37;;;;;;;7.20;3.60;;;19.40;74.20;;;;;;5049336;28;20468;-72
2023/08/01 01:33:03;;;;;;;11.47;4.13;;;19.40;74.50;;;;;;5058002;28;20484;-73
2023/08/01 01:35:29;;;;;;;8.53;3.83;;;19.30;74.90;;;;;;5033091;28;20925;-72
2023/08/01 01:37:55;;;;;;;8.30;3.60;;;19.20;75.20;;;;;;5056783;28;20502;-72
2023/08/01 01:40:21;;;;;;;6.20;3.63;;;19.10;75.80;;;;;;5054774;28;21021;-73
2023/08/01 01:42:48;;;;;;;5.60;3.40;;;19.10;75.90;;;;;;5057193;28;20193;-72
2023/08/01 01:45:13;;;;;;;7.03;3.70;;;19.00;76.20;;;;;;5049344;28;20945;-73
2023/08/01 01:47:39;;;;;;;9.23;4.00;;;18.90;77.40;;;;;;5050124;28;21017;-74
2023/08/01 01:50:05;;;;;;;7.40;4.33;;;18.80;77.80;;;;;;5046424;28;20586;-72
2023/08/01 01:52:31;;;;;;;9.87;4.27;;;18.70;78.00;;;;;;5045247;28;20232;-72
2023/08/01 01:54:56;;;;;;;6.57;3.60;;;18.70;78.30;;;;;;5050665;28;20471;-73
2023/08/01 01:57:22;;;;;;;8.40;4.23;;;18.70;78.40;;;;;;5060249;28;20352;-73
2023/08/01 01:59:48;;;;;;;5.77;3.53;;;18.70;78.40;;;;;;5053075;28;20224;-72
2023/08/01 02:02:14;;;;;;;7.43;4.60;;;18.70;78.60;;;;;;5044885;28;20194;-74
2023/08/01 02:04:39;;;;;;;6.80;3.83;;;18.80;78.40;;;;;;5054212;28;20279;-71
2023/08/01 02:07:05;;;;;;;9.60;4.10;;;18.80;78.30;;;;;;5057592;28;20585;-72
2023/08/01 02:09:31;;;;;;;7.37;4.10;;;18.90;78.10;;;;;;5062303;28;20240;-73
2023/08/01 02:11:56;;;;;;;8.43;4.13;;;18.80;78.40;;;;;;5047304;28;20217;-74
2023/08/01 02:14:22;;;;;;;9.80;4.10;;;18.80;78.70;;;;;;5061547;28;20197;-72
2023/08/01 02:16:48;;;;;;;7.50;3.67;;;18.90;78.60;;;;;;5051768;28;20260;-73
2023/08/01 02:19:13;;;;;;;9.27;4.43;;;18.90;78.60;;;;;;5057808;28;20219;-73
2023/08/01 02:21:39;;;;;;;10.27;3.97;;;19.00;78.40;;;;;;5046050;28;20609;-71
2023/08/01 02:24:04;;;;;;;7.03;4.00;;;19.00;78.40;;;;;;5063843;28;20187;-72
2023/08/01 02:26:30;;;;;;;6.00;3.37;;;19.00;78.60;;;;;;5051805;28;20605;-74
2023/08/01 02:28:56;;;;;;;6.30;3.97;;;19.00;78.40;;;;;;5052007;28;20256;-73
2023/08/01 02:31:21;;;;;;;5.97;4.03;;;19.00;78.40;;;;;;5054050;28;20530;-72
2023/08/01 02:33:47;;;;;;;8.80;4.30;;;19.00;78.60;;;;;;5052215;28;20195;-72
2023/08/01 02:36:13;;;;;;;8.63;4.63;;;19.00;78.60;;;;;;5068732;28;20275;-71
2023/08/01 02:38:39;;;;;;;10.47;5.07;;;19.00;78.60;;;;;;5054953;28;20621;-72
2023/08/01 02:41:04;;;;;;;8.77;5.10;;;18.90;79.30;;;;;;5054467;28;20549;-73
2023/08/01 02:43:30;;;;;;;6.10;3.73;;;18.90;79.50;;;;;;5059883;28;20196;-72
2023/08/01 02:45:56;;;;;;;9.33;4.47;;;19.00;79.30;;;;;;5063777;28;20235;-73
2023/08/01 02:48:21;;;;;;;7.70;4.17;;;19.10;78.70;;;;;;5060029;28;20185;-73
2023/08/01 02:50:47;;;;;;;7.53;4.33;;;19.10;78.60;;;;;;5054159;28;20211;-72
2023/08/01 02:53:13;;;;;;;8.07;4.87;;;19.00;78.90;;;;;;5056361;28;20263;-72
2023/08/01 02:55:39;;;;;;;9.00;4.20;;;19.00;78.60;;;;;;5066073;28;20198;-73
2023/08/01 02:58:04;;;;;;;8.60;3.60;;;18.90;78.10;;;;;;5054846;28;20465;-73
2023/08/01 03:00:31;;;;;;;7.57;4.43;;;19.00;78.10;;;;;;5056386;28;20520;-72
2023/08/01 03:02:57;;;;;;;6.63;4.10;;;19.00;77.70;;;;;;5052570;28;20190;-73
2023/08/01 03:05:22;;;;;;;6.13;3.87;;;19.00;77.30;;;;;;5052503;28;20440;-73
2023/08/01 03:07:48;;;;;;;6.60;3.67;;;19.10;76.40;;;;;;5067805;28;20682;-73
2023/08/01 03:10:14;;;;;;;8.80;4.40;;;19.20;76.50;;;;;;5063348;28;20215;-74
2023/08/01 03:12:39;;;;;;;6.33;3.63;;;19.20;76.70;;;;;;5056397;28;20194;-72
2023/08/01 03:15:08;;;;;;;9.50;4.47;;;19.20;76.50;;;;;;5064783;28;20196;-73
2023/08/01 03:17:33;;;;;;;8.17;4.00;;;19.30;75.70;;;;;;5067449;28;20185;-73
2023/08/01 03:19:59;;;;;;;9.37;3.80;;;19.30;75.10;;;;;;5057543;28;20492;-74
2023/08/01 03:22:25;;;;;;;8.63;4.27;;;19.40;75.10;;;;;;5051556;28;20544;-74
2023/08/01 03:24:50;;;;;;;12.50;4.10;;;19.40;74.90;;;;;;5062750;28;20198;-73
2023/08/01 03:27:16;;;;;;;9.13;4.33;;;19.40;74.80;;;;;;5065257;28;20189;-74
2023/08/01 03:29:41;;;;;;;7.23;3.83;;;19.40;74.80;;;;;;5066415;28;20765;-73
2023/08/01 03:32:07;;;;;;;12.80;4.17;;;19.40;74.80;;;;;;5050144;28;20237;-73
2023/08/01 03:34:33;;;;;;;10.07;3.60;;;19.40;74.80;;;;;;5058792;28;20183;-72
2023/08/01 03:36:58;;;;;;;6.50;4.20;;;19.50;75.10;;;;;;5062199;28;20537;-72
2023/08/01 03:39:24;;;;;;;8.17;4.50;;;19.40;75.40;;;;;;5051793;28;20256;-72
2023/08/01 03:41:49;;;;;;;11.77;3.83;;;19.30;76.20;;;;;;5045144;28;20371;-73
2023/08/01 03:44:16;;;;;;;7.43;4.33;;;19.30;76.80;;;;;;5056597;28;20726;-73
2023/08/01 03:46:42;;;;;;;7.70;4.27;;;19.40;77.00;;;;;;5053604;28;20914;-73
2023/08/01 03:49:09;;;;;;;7.90;4.20;;;19.40;75.80;;;;;;5061845;28;20445;-73
2023/08/01 03:51:34;;;;;;;8.30;4.10;;;19.40;75.50;;;;;;5048071;28;20474;-73
2023/08/01 03:54:00;;;;;;;6.23;3.30;;;19.40;75.10;;;;;;5051643;28;20974;-73
2023/08/01 03:56:27;;;;;;;7.40;3.93;;;19.40;74.50;;;;;;5058541;28;20223;-71
2023/08/01 03:58:52;;;;;;;8.13;4.00;;;19.50;74.00;;;;;;5065159;28;20298;-74
2023/08/01 04:01:18;;;;;;;11.17;3.67;;;19.50;74.30;;;;;;5056057;28;21430;-71
2023/08/01 04:03:44;;;;;;;8.40;3.80;;;19.50;74.20;;;;;;5062765;28;20193;-73
2023/08/01 04:06:10;;;;;;;7.83;3.93;;;19.50;73.70;;;;;;5068089;28;20644;-71
2023/08/01 04:08:36;;;;;;;7.73;3.33;;;19.60;73.20;;;;;;5070065;28;20182;-72
2023/08/01 04:11:02;;;;;;;5.07;3.23;;;19.60;73.20;;;;;;5056759;28;20468;-71
2023/08/01 04:13:27;;;;;;;6.87;3.57;;;19.60;72.90;;;;;;5062377;28;20184;-70
2023/08/01 04:15:53;;;;;;;6.67;3.70;;;19.70;72.90;;;;;;5065295;28;20195;-71
2023/08/01 04:18:18;;;;;;;14.27;5.77;;;19.70;72.70;;;;;;5052462;28;20827;-72
2023/08/01 04:20:44;;;;;;;7.97;4.50;;;19.70;72.90;;;;;;5047039;28;20214;-72
2023/08/01 04:23:09;;;;;;;7.90;4.27;;;19.70;72.90;;;;;;5062564;28;20338;-71
2023/08/01 04:25:35;;;;;;;7.70;3.57;;;19.70;73.00;;;;;;5053733;28;20176;-71
2023/08/01 04:28:01;;;;;;;7.23;3.60;;;19.70;73.00;;;;;;5059129;28;20190;-71
2023/08/01 04:30:26;;;;;;;8.47;4.37;;;19.60;73.50;;;;;;5053314;28;20211;-72
2023/08/01 04:32:52;;;;;;;7.23;4.10;;;19.60;73.30;;;;;;5060432;28;20276;-73
2023/08/01 04:35:17;;;;;;;7.27;3.80;;;19.60;73.30;;;;;;5052016;28;20203;-71
2023/08/01 04:37:43;;;;;;;8.17;4.10;;;19.60;73.20;;;;;;5057794;28;20658;-73
2023/08/01 04:40:09;;;;;;;6.27;3.67;;;19.60;73.20;;;;;;5053343;28;20236;-74
2023/08/01 04:42:34;;;;;;;7.93;3.83;;;19.60;73.20;;;;;;5046657;28;20178;-73
2023/08/01 04:45:00;;;;;;;6.57;4.00;;;19.60;72.90;;;;;;5064279;28;20184;-73
2023/08/01 04:47:25;;;;;;;6.20;3.33;;;19.60;73.00;;;;;;5069365;28;20195;-72
2023/08/01 04:49:51;;;;;;;6.57;3.40;;;19.60;72.70;;;;;;5054678;28;20192;-72
2023/08/01 04:52:17;;;;;;;5.40;3.40;;;19.60;72.40;;;;;;5052919;28;20674;-73
2023/08/01 04:54:42;;;;;;;5.33;3.20;;;19.60;72.70;;;;;;5067406;28;20188;-72
2023/08/01 04:57:08;;;;;;;5.60;3.30;;;19.70;72.30;;;;;;5062684;28;20186;-71
2023/08/01 04:59:33;;;;;;;6.13;3.20;;;19.70;72.30;;;;;;5061663;28;20327;-71
2023/08/01 05:01:59;;;;;;;7.13;3.03;;;19.80;72.10;;;;;;5045363;28;20204;-71
2023/08/01 05:04:25;;;;;;;10.13;4.20;;;19.80;72.00;;;;;;5056485;28;20341;-73
2023/08/01 05:06:50;;;;;;;5.83;3.80;;;19.70;71.80;;;;;;5061501;28;20197;-72
2023/08/01 05:09:16;;;;;;;9.17;4.10;;;19.70;72.00;;;;;;5059807;28;20183;-73
2023/08/01 05:11:41;;;;;;;5.93;3.57;;;19.80;71.70;;;;;;5050473;28;20211;-73
2023/08/01 05:14:07;;;;;;;7.37;3.43;;;19.80;71.70;;;;;;5060737;28;20192;-72
2023/08/01 05:16:32;;;;;;;4.90;3.37;;;19.80;71.70;;;;;;5062870;28;20200;-73
2023/08/01 05:18:58;;;;;;;7.73;4.43;;;19.80;71.80;;;;;;5062571;28;20228;-72
2023/08/01 05:21:24;;;;;;;10.10;4.50;;;19.70;72.30;;;;;;5048480;28;20212;-71
2023/08/01 05:23:50;;;;;;;9.90;4.20;;;19.70;72.60;;;;;;5054659;28;20655;-72
2023/08/01 05:26:16;;;;;;;9.10;4.30;;;19.70;72.70;;;;;;5061012;28;20205;-73
2023/08/01 05:28:41;;;;;;;10.47;3.93;;;19.60;72.10;;;;;;5063635;28;20427;-72
2023/08/01 05:31:07;;;;;;;8.03;4.40;;;19.70;72.00;;;;;;5048815;28;20294;-72
2023/08/01 05:33:32;;;;;;;6.17;3.70;;;19.80;71.60;;;;;;5056652;28;20185;-71
2023/08/01 05:35:58;;;;;;;8.60;3.83;;;19.80;71.00;;;;;;5062346;28;20207;-73
2023/08/01 05:38:24;;;;;;;5.97;4.20;;;19.90;71.00;;;;;;5066266;28;20232;-72
2023/08/01 05:40:49;;;;;;;8.40;4.10;;;20.10;70.20;;;;;;5042132;28;20304;-74
2023/08/01 05:43:15;;;;;;;7.73;4.00;;;20.10;70.20;;;;;;5056549;28;20243;-73
2023/08/01 05:45:41;;;;;;;5.77;3.80;;;20.20;70.10;;;;;;5050414;28;20193;-72
2023/08/01 05:48:06;;;;;;;13.70;4.00;;;20.20;69.90;;;;;;5050373;28;20710;-73
2023/08/01 05:50:32;;;;;;;6.03;3.53;;;20.10;70.20;;;;;;5043228;28;20549;-72
2023/08/01 05:52:58;;;;;;;9.00;4.43;;;20.10;70.20;;;;;;5050048;28;20205;-71
2023/08/01 05:55:23;;;;;;;8.93;4.77;;;20.20;69.50;;;;;;5050132;28;20181;-72
2023/08/01 05:57:52;;;;;;;8.13;4.40;;;20.30;68.80;;;;;;5063651;28;20195;-73
2023/08/01 06:00:20;;;;;;;6.60;3.93;;;20.30;68.30;;;;;;5045310;28;20221;-71
2023/08/01 06:02:46;;;;;;;9.97;4.50;;;20.30;68.60;;;;;;5034453;28;20480;-72
2023/08/01 06:05:11;;;;;;;11.17;5.20;;;20.30;68.00;;;;;;5059159;28;20427;-71
2023/08/01 06:07:37;;;;;;;9.13;4.40;;;20.40;68.00;;;;;;5060347;28;20662;-73
2023/08/01 06:10:04;;;;;;;13.87;4.50;;;20.40;68.20;;;;;;5051833;28;20188;-72
2023/08/01 06:12:29;;;;;;;8.27;4.13;;;20.40;67.60;;;;;;5050220;28;20212;-72
2023/08/01 06:14:55;;;;;;;9.07;4.07;;;20.40;67.30;;;;;;5058512;28;20438;-71
2023/08/01 06:17:21;;;;;;;8.20;3.93;;;20.30;67.30;;;;;;5062858;28;20570;-72
2023/08/01 06:19:47;;;;;;;7.40;3.63;;;20.20;67.50;;;;;;5068381;28;20241;-73
2023/08/01 06:22:13;;;;;;;7.33;4.17;;;20.20;67.00;;;;;;5051214;28;20267;-73
2023/08/01 06:24:38;;;;;;;8.83;3.70;;;20.20;67.60;;;;;;5063581;28;20521;-71
2023/08/01 06:27:05;;;;;;;14.50;4.03;;;20.20;67.50;;;;;;5066325;28;20188;-72
2023/08/01 06:29:31;;;;;;;8.40;4.50;;;20.10;67.60;;;;;;5066406;28;20207;-71
2023/08/01 06:31:56;;;;;;;7.47;4.10;;;19.90;70.50;;;;;;5053481;28;20472;-73
2023/08/01 06:34:22;;;;;;;6.10;4.03;;;19.30;73.70;;;;;;5069531;28;20190;-73
2023/08/01 06:36:48;;;;;;;11.27;4.43;;;18.80;75.70;;;;;;5057856;28;20237;-73
2023/08/01 06:39:13;;;;;;;6.87;4.47;;;18.50;74.90;;;;;;5053189;28;20884;-72
2023/08/01 06:41:39;;;;;;;8.93;4.67;;;18.40;75.20;;;;;;5050669;28;20957;-73
2023/08/01 06:44:04;;;;;;;9.40;5.13;;;18.40;74.30;;;;;;5060478;28;20184;-72
2023/08/01 06:46:30;;;;;;;10.10;5.07;;;18.50;74.50;;;;;;5055370;28;20200;-72
2023/08/01 06:48:56;;;;;;;11.30;5.20;;;18.50;74.80;;;;;;5054117;28;20194;-71
2023/08/01 06:51:21;;;;;;;10.27;6.10;;;18.50;75.10;;;;;;5055538;28;20212;-72
2023/08/01 06:53:47;;;;;;;11.43;5.70;;;18.50;75.70;;;;;;5062756;28;20208;-74
2023/08/01 06:56:12;;;;;;;10.87;6.20;;;18.30;77.30;;;;;;5065645;28;20212;-73
2023/08/01 06:58:38;;;;;;;12.47;5.90;;;17.90;79.00;;;;;;5065166;28;20253;-72
2023/08/01 07:01:04;;;;;;;10.20;5.80;;;17.60;80.30;;;;;;5045116;28;20219;-72
2023/08/01 07:03:29;;;;;;;12.07;5.90;;;17.50;80.60;;;;;;5052829;28;20628;-72
2023/08/01 07:05:55;;;;;;;17.60;6.37;;;17.40;81.20;;;;;;5061692;28;20688;-72
2023/08/01 07:08:21;;;;;;;13.97;6.47;;;17.50;80.80;;;;;;5055814;28;20485;-72
2023/08/01 07:10:47;;;;;;;11.87;6.17;;;17.50;81.20;;;;;;5050511;28;20212;-72
2023/08/01 07:13:12;;;;;;;12.40;6.50;;;17.60;81.50;;;;;;5054195;28;20442;-72
2023/08/01 07:15:38;;;;;;;11.43;6.10;;;17.70;81.20;;;;;;5057568;28;20189;-72
2023/08/01 07:18:03;;;;;;;13.20;6.63;;;17.80;79.90;;;;;;5070207;28;20195;-71
2023/08/01 07:20:29;;;;;;;12.13;5.67;;;17.90;79.30;;;;;;5058684;28;20208;-71
2023/08/01 07:22:55;;;;;;;15.67;6.93;;;18.00;79.00;;;;;;5055144;28;20204;-72
2023/08/01 07:25:20;;;;;;;12.17;5.90;;;18.00;78.40;;;;;;5067911;28;20210;-71
2023/08/01 07:27:46;;;;;;;14.33;6.73;;;18.10;78.30;;;;;;5054862;28;20193;-72
2023/08/01 07:30:12;;;;;;;11.13;5.60;;;18.00;79.60;;;;;;5050622;28;20212;-72
2023/08/01 07:32:38;;;;;;;14.07;6.37;;;17.80;80.00;;;;;;5058909;28;20172;-73
2023/08/01 07:35:05;;;;;;;15.00;6.20;;;17.70;80.90;;;;;;5064548;28;20279;-73
2023/08/01 07:37:32;;;;;;;13.07;6.20;;;17.70;80.30;;;;;;5061265;28;20207;-73
2023/08/01 07:39:58;;;;;;;12.57;5.40;;;17.70;81.40;;;;;;5049769;28;20483;-71
2023/08/01 07:42:24;;;;;;;19.13;6.60;;;17.50;82.10;;;;;;5051612;28;20795;-72
2023/08/01 07:44:49;;;;;;;14.90;6.53;;;17.40;83.00;;;;;;5062778;28;20220;-72
2023/08/01 07:47:15;;;;;;;14.00;6.10;;;17.20;84.60;;;;;;5061595;28;20633;-71
2023/08/01 07:49:40;;;;;;;13.93;5.83;;;17.00;85.60;;;;;;5063033;28;20203;-72
2023/08/01 07:52:06;;;;;;;14.23;5.90;;;16.90;86.30;;;;;;5049618;28;20227;-72
2023/08/01 07:54:32;;;;;;;13.07;5.80;;;16.80;86.80;;;;;;5064634;28;20665;-72
2023/08/01 07:56:57;;;;;;;8.20;4.67;;;16.70;87.30;;;;;;5061345;28;20433;-72
2023/08/01 07:59:23;;;;;;;9.60;4.43;;;16.70;87.70;;;;;;5059831;28;20268;-72
2023/08/01 08:01:49;;;;;;;11.43;5.20;;;16.70;88.30;;;;;;5049690;28;21049;-72
2023/08/01 08:04:14;;;;;;;13.77;6.33;;;16.60;88.70;;;;;;5060755;28;20559;-71
2023/08/01 08:06:40;;;;;;;6.70;3.80;;;16.70;88.90;;;;;;5051890;28;20222;-73
2023/08/01 08:09:06;;;;;;;10.70;4.23;;;16.70;89.20;;;;;;5051072;28;20250;-74
2023/08/01 08:11:33;;;;;;;10.30;5.07;;;16.80;89.30;;;;;;5054666;28;20784;-74
2023/08/01 08:13:59;;;;;;;8.33;3.60;;;16.80;89.00;;;;;;5058038;28;20225;-73
2023/08/01 08:16:25;;;;;;;8.93;4.03;;;16.80;89.20;;;;;;5052051;28;20449;-73
2023/08/01 08:18:51;;;;;;;7.00;4.10;;;16.80;89.20;;;;;;5061036;28;20229;-74
2023/08/01 08:21:16;;;;;;;7.80;3.43;;;16.90;89.00;;;;;;5058181;28;20469;-72
2023/08/01 08:23:42;;;;;;;7.17;4.03;;;16.90;89.00;;;;;;5056084;28;20264;-72
2023/08/01 08:26:08;;;;;;;9.10;3.77;;;16.90;89.20;;;;;;5058329;28;20658;-72
2023/08/01 08:28:34;;;;;;;6.97;2.97;;;17.00;89.00;;;;;;5053664;28;20557;-74
2023/08/01 08:31:01;;;;;;;5.10;2.93;;;17.00;89.00;;;;;;5049557;28;20576;-72
2023/08/01 08:33:27;;;;;;;6.97;3.43;;;17.00;88.70;;;;;;5054912;28;20438;-72
2023/08/01 08:35:52;;;;;;;7.47;3.07;;;17.00;89.20;;;;;;5053528;28;20523;-73
2023/08/01 08:38:21;;;;;;;6.53;3.20;;;17.10;89.60;;;;;;5070494;28;20207;-73
2023/08/01 08:40:58;;;;;;;6.63;3.53;;;17.10;89.20;;;;;;5054456;28;20223;-72
2023/08/01 08:43:26;;;;;;;6.70;3.27;;;17.20;89.20;;;;;;5059726;28;21153;-73
2023/08/01 08:45:55;;;;;;;5.97;3.53;;;17.30;88.70;;;;;;5057719;28;20450;-73
2023/08/01 08:48:21;;;;;;;12.90;3.77;;;17.40;88.60;;;;;;5051872;28;20438;-73
2023/08/01 08:50:48;;;;;;;6.80;3.10;;;17.60;87.80;;;;;;5044845;28;20520;-73
2023/08/01 08:53:14;;;;;;;6.30;3.20;;;17.70;87.30;;;;;;5058206;28;20212;-72
2023/08/01 08:55:40;;;;;;;8.63;4.07;;;17.80;85.70;;;;;;5069733;28;20942;-72
2023/08/01 08:58:06;;;;;;;6.50;3.60;;;17.90;85.50;;;;;;5055624;28;20424;-72
2023/08/01 09:00:32;;;;;;;4.70;3.27;;;18.10;85.50;;;;;;5059722;28;20479;-73
2023/08/01 09:02:58;;;;;;;6.70;3.80;;;18.20;84.60;;;;;;5057825;28;20532;-72
2023/08/01 09:05:30;;;;;;;10.17;3.77;;;18.30;84.60;;;;;;5051835;28;20977;-72
2023/08/01 09:07:58;;;;;;;5.83;3.10;;;18.30;83.70;;;;;;5050978;28;20208;-71
2023/08/01 09:10:24;;;;;;;6.00;3.30;;;18.30;84.10;;;;;;5046164;28;20464;-71
2023/08/01 09:12:50;;;;;;;5.83;3.10;;;18.40;84.30;;;;;;5060823;28;20424;-70
2023/08/01 09:15:17;;;;;;;6.20;3.20;;;18.30;83.70;;;;;;5054996;28;20200;-72
2023/08/01 09:18:00;;;;;;;4.80;2.47;;;18.30;83.60;;;;;;5053273;28;20462;-72
2023/08/01 09:20:27;;;;;;;4.50;2.57;;;18.30;84.10;;;;;;5056644;28;20486;-72
2023/08/01 09:22:53;;;;;;;6.97;3.70;;;18.20;84.30;;;;;;5055344;28;20514;-72
2023/08/01 09:25:19;;;;;;;5.23;2.93;;;18.20;84.60;;;;;;5060428;28;21217;-72
2023/08/01 09:27:44;;;;;;;4.60;2.43;;;18.30;84.90;;;;;;5060523;28;20193;-71
2023/08/01 09:30:17;;;;;;;6.63;2.80;;;18.30;84.40;;;;;;5058024;28;20213;-73
2023/08/01 09:32:55;;;;;;;4.60;2.60;;;18.30;84.40;;;;;;5057135;28;20185;-71
2023/08/01 09:35:22;;;;;;;3.87;2.13;;;18.30;84.60;;;;;;5056751;28;20472;-73
2023/08/01 09:37:48;;;;;;;6.53;2.70;;;18.40;83.80;;;;;;5050504;28;20437;-72
2023/08/01 09:40:15;;;;;;;4.77;2.53;;;18.50;83.10;;;;;;5057865;28;20493;-72
2023/08/01 09:42:44;;;;;;;5.63;2.83;;;18.70;83.00;;;;;;5054949;28;20423;-72
2023/08/01 09:45:14;;;;;;;4.20;2.00;;;18.80;82.70;;;;;;5051575;28;20463;-72
2023/08/01 09:47:41;;;;;;;3.87;2.10;;;18.80;82.40;;;;;;5050717;28;20439;-72
2023/08/01 09:50:08;;;;;;;3.53;1.90;;;18.90;82.40;;;;;;5047394;28;20448;-72
2023/08/01 09:52:34;;;;;;;4.53;1.93;;;18.90;82.20;;;;;;5046624;28;20461;-72
2023/08/01 09:54:59;;;;;;;3.60;1.90;;;19.00;81.90;;;;;;5052017;28;20435;-71
2023/08/01 09:57:29;;;;;;;2.70;1.73;;;19.20;81.40;;;;;;5059334;28;20426;-71
2023/08/01 09:59:57;;;;;;;3.30;1.37;;;19.20;81.10;;;;;;5049071;28;20712;-71
2023/08/01 10:02:29;;;;;;;1.87;1.17;;;19.30;80.50;;;;;;5050960;28;20863;-71
2023/08/01 10:04:58;;;;;;;2.70;1.50;;;19.40;80.30;;;;;;5050639;28;20435;-72
2023/08/01 10:07:28;;;;;;;4.37;1.70;;;19.40;79.90;;;;;;5061934;28;20469;-72
2023/08/01 10:09:58;;;;;;;2.37;1.47;;;19.50;79.30;;;;;;5062098;28;20933;-70
2023/08/01 10:12:26;;;;;;;1.40;1.03;;;19.60;79.20;;;;;;5058199;28;20443;-71
2023/08/01 10:14:53;;;;;;;1.60;1.10;;;19.50;78.60;;;;;;5064650;28;20465;-71
2023/08/01 10:17:22;;;;;;;1.27;0.93;;;19.60;79.50;;;;;;5072123;28;20493;-71
2023/08/01 10:19:50;;;;;;;2.60;1.10;;;19.60;79.20;;;;;;5070903;28;20844;-71
2023/08/01 10:22:17;;;;;;;4.83;1.07;;;19.80;79.00;;;;;;5056008;28;20526;-70
2023/08/01 10:24:43;;;;;;;1.63;0.93;;;19.80;78.00;;;;;;5067975;28;20502;-73
2023/08/01 10:27:13;;;;;;;2.20;1.13;;;19.70;78.60;;;;;;5069299;28;20522;-71
2023/08/01 10:29:39;;;;;;;2.50;1.10;;;19.70;78.60;;;;;;5052967;28;20426;-71
2023/08/01 10:32:07;;;;;;;2.03;1.20;;;19.70;78.40;;;;;;5056196;28;21023;-71
2023/08/01 10:34:32;;;;;;;2.97;1.20;;;19.70;78.70;;;;;;5057407;28;20189;-71
2023/08/01 10:36:59;;;;;;;1.80;0.93;;;19.80;78.70;;;;;;5053251;28;20515;-72
2023/08/01 10:39:26;;;;;;;3.13;0.97;;;19.90;78.10;;;;;;5060377;28;20590;-71
2023/08/01 10:42:03;;;;;;;1.80;1.00;;;19.90;77.30;;;;;;5056862;28;20467;-71
2023/08/01 10:44:30;;;;;;;2.00;1.03;;;19.90;77.70;;;;;;5058773;28;20469;-71
2023/08/01 10:46:59;;;;;;;2.80;1.07;;;20.10;77.80;;;;;;5053765;28;20426;-72
2023/08/01 10:49:43;;;;;;;4.80;0.90;;;20.30;76.70;;;;;;5052943;28;20450;-71
2023/08/01 10:52:18;;;;;;;1.37;0.97;;;20.50;77.10;;;;;;5046163;28;20509;-73
2023/08/01 10:54:44;;;;;;;1.23;1.00;;;20.90;74.60;;;;;;5063041;28;20433;-71
2023/08/01 10:57:17;;;;;;;1.70;1.10;;;21.30;73.70;;;;;;5072397;28;20411;-71
2023/08/01 10:59:43;;;;;;;4.10;1.43;;;21.40;73.50;;;;;;5058136;28;20483;-71
2023/08/01 11:02:09;;;;;;;1.43;0.90;;;20.60;71.60;;;;;;5049713;28;20432;-71
2023/08/01 11:04:34;;;;;;;2.13;1.30;;;21.30;69.80;;;;;;5055104;28;20427;-73
2023/08/01 11:07:01;;;;;;;2.10;1.00;;;21.30;67.70;;;;;;5053589;28;20702;-71
2023/08/01 11:09:28;;;;;;;2.10;1.10;;;21.40;65.80;;;;;;5052647;28;20252;-71
2023/08/01 11:11:58;;;;;;;1.33;1.00;;;21.40;65.00;;;;;;5047166;28;20457;-71
2023/08/01 11:14:26;;;;;;;3.00;1.33;;;21.20;65.60;;;;;;5063527;28;20418;-72
2023/08/01 11:16:54;;;;;;;1.43;1.10;;;21.10;66.40;;;;;;5071940;28;20431;-71
2023/08/01 11:19:28;;;;;;;1.30;0.90;;;21.10;66.10;;;;;;5070704;28;20964;-72
2023/08/01 11:21:56;;;;;;;2.33;1.40;;;20.80;66.70;;;;;;5052149;28;20467;-72
2023/08/01 11:24:23;;;;;;;2.63;1.43;;;21.00;65.40;;;;;;5056586;28;20419;-72
2023/08/01 11:26:50;;;;;;;2.90;1.70;;;21.20;65.70;;;;;;5052697;28;21292;-72
2023/08/01 11:29:17;;;;;;;2.47;1.23;;;21.20;65.10;;;;;;5053136;28;20429;-72
2023/08/01 11:31:56;;;;;;;2.50;1.33;;;21.50;63.70;;;;;;5057561;28;20560;-72
2023/08/01 11:34:22;;;;;;;3.93;1.40;;;21.70;61.60;;;;;;5066138;28;20507;-71
2023/08/01 11:36:49;;;;;;;1.67;1.33;;;21.70;62.50;;;;;;5055212;28;20421;-71
2023/08/01 11:39:15;;;;;;;4.60;1.53;;;21.80;62.60;;;;;;5059829;28;20480;-71
2023/08/01 11:41:41;;;;;;;2.30;1.43;;;21.80;62.80;;;;;;5052409;28;20457;-71
2023/08/01 11:44:09;;;;;;;3.73;1.60;;;22.20;62.20;;;;;;5061244;28;20426;-72
2023/08/01 11:46:37;;;;;;;2.77;1.67;;;22.30;61.20;;;;;;5055233;28;20479;-72
2023/08/01 11:49:06;;;;;;;2.20;1.47;;;22.50;61.70;;;;;;5057828;28;20793;-71
2023/08/01 11:51:43;;;;;;;2.20;1.33;;;22.70;60.90;;;;;;5050322;28;20465;-71
2023/08/01 11:54:11;;;;;;;2.07;1.47;;;22.80;59.90;;;;;;5059819;28;20538;-73
2023/08/01 11:56:37;;;;;;;1.83;1.30;;;23.00;59.60;;;;;;5057716;28;20427;-72
2023/08/01 11:59:15;;;;;;;2.23;1.40;;;23.30;59.30;;;;;;5044128;28;20480;-72
2023/08/01 12:01:43;;;;;;;2.30;1.57;;;23.50;57.80;;;;;;5049573;28;20482;-73
2023/08/01 12:04:09;;;;;;;1.97;1.33;;;22.90;59.50;;;;;;5051583;28;20426;-73
2023/08/01 12:06:36;;;;;;;3.60;1.90;;;23.40;59.30;;;;;;5051726;28;20435;-72
2023/08/01 12:09:10;;;;;;;1.90;1.40;;;23.60;58.20;;;;;;5051855;28;20976;-72
2023/08/01 12:11:37;;;;;;;2.40;1.67;;;23.40;59.50;;;;;;5045445;28;20504;-73
2023/08/01 12:14:11;;;;;;;3.53;1.80;;;22.50;59.60;;;;;;5056660;28;20933;-73
2023/08/01 12:16:38;;;;;;;5.10;1.60;;;22.80;60.00;;;;;;5046097;28;20904;-74
2023/08/01 12:19:04;;;;;;;3.30;1.80;;;22.90;59.20;;;;;;5051259;28;20485;-73
2023/08/01 12:21:32;;;;;;;2.03;1.60;;;22.50;59.30;;;;;;5046393;28;20498;-73
2023/08/01 12:23:58;;;;;;;3.87;2.00;;;22.90;60.00;;;;;;5055315;28;20460;-72
2023/08/01 12:26:24;;;;;;;9.70;2.13;;;23.10;59.60;;;;;;5067212;28;20467;-72
2023/08/01 12:28:50;;;;;;;2.13;1.37;;;23.10;59.30;;;;;;5062667;28;20782;-73
2023/08/01 12:31:18;;;;;;;1.83;1.20;;;23.50;58.50;;;;;;5045125;28;21042;-74
2023/08/01 12:33:44;;;;;;;2.33;1.50;;;23.60;57.30;;;;;;5058046;28;20836;-73
2023/08/01 12:36:09;;;;;;;2.87;1.50;;;23.70;57.40;;;;;;5064392;28;20439;-73
2023/08/01 12:38:35;;;;;;;2.73;1.53;;;23.90;57.30;;;;;;5061182;28;20300;-72
2023/08/01 12:41:01;;;;;;;2.73;1.80;;;23.90;56.60;;;;;;5051044;28;20219;-73